Time;durP1;ratioP1;P1;durP2;ratioP2;P2;SDS_P1;SDS_P2;PMS_P1;PMS_P2;Temp;Humidity;BMP_temperature;BMP_pressure;BME280_temperature;BME280_humidity;BME280_pressure;Samples;Min_cycle;Max_cycle;Signal;HPM_P1;HPM_P2
2022/04/27 00:00:43;;;;;;;13.93;6.93;;;;;;;;;;5024378;28;20052;-59
2022/04/27 00:03:09;;;;;;;11.57;6.43;;;;;;;;;;5025558;28;20480;-60
2022/04/27 00:05:35;;;;;;;12.02;5.45;;;;;;;;;;5026513;28;20125;-59
2022/04/27 00:08:02;;;;;;;15.77;5.25;;;;;;;;;;5027022;28;20061;-59
2022/04/27 00:10:28;;;;;;;13.15;5.70;;;;;;;;;;5027777;28;20057;-59
2022/04/27 00:12:54;;;;;;;10.93;6.40;;;;;;;;;;5025555;28;20068;-59
2022/04/27 00:15:23;;;;;;;12.80;6.22;;;;;;;;;;5028012;28;20037;-59
2022/04/27 00:17:49;;;;;;;11.60;6.22;;;;;;;;;;5025871;28;20050;-59
2022/04/27 00:20:15;;;;;;;12.70;6.10;;;;;;;;;;5027218;28;20046;-59
2022/04/27 00:22:41;;;;;;;15.93;6.53;;;;;;;;;;5027375;28;20084;-60
2022/04/27 00:25:08;;;;;;;18.95;5.97;;;;;;;;;;5027639;28;20050;-59
2022/04/27 00:27:34;;;;;;;16.83;6.95;;;;;;;;;;5027460;28;20535;-59
2022/04/27 00:30:00;;;;;;;19.25;6.28;;;;;;;;;;5027599;28;20049;-59
2022/04/27 00:32:26;;;;;;;11.68;6.03;;;;;;;;;;5027502;28;20505;-58
2022/04/27 00:34:52;;;;;;;13.00;5.97;;;;;;;;;;5027748;28;20046;-59
2022/04/27 00:37:19;;;;;;;12.85;6.65;;;;;;;;;;5027070;28;20048;-59
2022/04/27 00:39:45;;;;;;;14.45;6.50;;;;;;;;;;5027390;28;20054;-59
2022/04/27 00:42:20;;;;;;;13.05;6.38;;;;;;;;;;5027539;28;20130;-59
2022/04/27 00:44:46;;;;;;;19.63;5.90;;;;;;;;;;5027190;28;20085;-59
2022/04/27 00:47:13;;;;;;;16.05;5.93;;;;;;;;;;5027227;28;20100;-59
2022/04/27 00:49:44;;;;;;;14.95;6.18;;;;;;;;;;5027332;28;20073;-60
2022/04/27 00:52:13;;;;;;;11.90;5.85;;;;;;;;;;5027142;28;20057;-59
2022/04/27 00:54:42;;;;;;;15.80;6.53;;;;;;;;;;5027140;28;20057;-58
2022/04/27 00:57:08;;;;;;;13.18;6.07;;;;;;;;;;5026980;28;20045;-59
2022/04/27 00:59:35;;;;;;;11.05;6.47;;;;;;;;;;5027159;28;20477;-59
2022/04/27 01:02:02;;;;;;;13.10;5.90;;;;;;;;;;5009337;28;20054;-59
2022/04/27 01:04:28;;;;;;;13.52;6.07;;;;;;;;;;5026956;28;20121;-58
2022/04/27 01:06:54;;;;;;;11.50;5.97;;;;;;;;;;5026727;28;20073;-59
2022/04/27 01:09:22;;;;;;;13.02;5.85;;;;;;;;;;5026822;28;20046;-59
2022/04/27 01:11:49;;;;;;;14.05;6.07;;;;;;;;;;5008717;28;20101;-59
2022/04/27 01:14:15;;;;;;;12.30;5.53;;;;;;;;;;5026746;28;20038;-59
2022/04/27 01:16:41;;;;;;;15.48;6.15;;;;;;;;;;5026701;28;20042;-59
2022/04/27 01:19:07;;;;;;;10.10;6.25;;;;;;;;;;5026198;28;20129;-59
2022/04/27 01:21:34;;;;;;;10.40;5.80;;;;;;;;;;5026023;28;20049;-59
2022/04/27 01:24:00;;;;;;;16.63;6.20;;;;;;;;;;5026069;28;20125;-58
2022/04/27 01:26:27;;;;;;;13.30;6.07;;;;;;;;;;5026554;28;20541;-58
2022/04/27 01:28:53;;;;;;;19.95;7.25;;;;;;;;;;5026337;28;20053;-58
2022/04/27 01:31:19;;;;;;;18.85;6.57;;;;;;;;;;5026383;28;20037;-58
2022/04/27 01:33:47;;;;;;;13.80;5.90;;;;;;;;;;5026048;28;20045;-59
2022/04/27 01:36:13;;;;;;;12.45;5.93;;;;;;;;;;5026353;28;20532;-60
2022/04/27 01:38:40;;;;;;;13.45;6.10;;;;;;;;;;5008555;28;20057;-58
2022/04/27 01:41:07;;;;;;;12.55;7.25;;;;;;;;;;5025993;28;20045;-58
2022/04/27 01:43:33;;;;;;;15.95;6.68;;;;;;;;;;5025350;28;20540;-59
2022/04/27 01:46:00;;;;;;;11.38;5.70;;;;;;;;;;5008350;28;20046;-60
2022/04/27 01:48:27;;;;;;;14.35;6.80;;;;;;;;;;5025840;28;20061;-60
2022/04/27 01:50:54;;;;;;;14.00;6.60;;;;;;;;;;5025786;28;20046;-58
2022/04/27 01:56:05;;;;;;;10.68;5.53;;;;;;;;;;5026057;28;20057;-59
2022/04/27 01:58:32;;;;;;;7.38;4.95;;;;;;;;;;5025436;28;20101;-60
2022/04/27 02:00:58;;;;;;;10.45;4.93;;;;;;;;;;5025643;28;20053;-59
2022/04/27 02:03:24;;;;;;;11.30;5.30;;;;;;;;;;5025451;28;20050;-59
2022/04/27 02:05:52;;;;;;;7.22;4.80;;;;;;;;;;5025375;28;20498;-59
2022/04/27 02:08:18;;;;;;;11.85;4.78;;;;;;;;;;5008019;28;20054;-60
2022/04/27 02:10:45;;;;;;;10.80;4.55;;;;;;;;;;5025810;28;20121;-59
2022/04/27 02:13:11;;;;;;;8.13;4.93;;;;;;;;;;5025599;28;20046;-59
2022/04/27 02:15:38;;;;;;;11.60;5.18;;;;;;;;;;5025470;28;20047;-59
2022/04/27 02:18:04;;;;;;;11.23;4.85;;;;;;;;;;5025133;28;20164;-59
2022/04/27 02:20:31;;;;;;;13.02;5.05;;;;;;;;;;5025570;28;20408;-59
2022/04/27 02:22:57;;;;;;;9.45;5.57;;;;;;;;;;5024752;28;20049;-59
2022/04/27 02:25:23;;;;;;;15.25;5.32;;;;;;;;;;5024963;28;20081;-59
2022/04/27 02:27:50;;;;;;;11.52;5.05;;;;;;;;;;5025212;28;20045;-59
2022/04/27 02:30:16;;;;;;;9.25;5.20;;;;;;;;;;5025269;28;20422;-59
2022/04/27 02:32:45;;;;;;;8.95;4.88;;;;;;;;;;5025013;28;20042;-59
2022/04/27 02:35:11;;;;;;;17.08;5.22;;;;;;;;;;5024811;28;20049;-61
2022/04/27 02:37:38;;;;;;;8.38;5.13;;;;;;;;;;5025087;28;20137;-58
2022/04/27 02:40:04;;;;;;;8.73;4.35;;;;;;;;;;5025312;28;20073;-60
2022/04/27 02:42:30;;;;;;;12.23;4.60;;;;;;;;;;5024344;28;20046;-58
2022/04/27 02:44:57;;;;;;;15.27;5.95;;;;;;;;;;5024921;28;20417;-59
2022/04/27 02:47:23;;;;;;;8.98;4.38;;;;;;;;;;5025232;28;20505;-62
2022/04/27 02:52:34;;;;;;;11.75;4.40;;;;;;;;;;5025002;28;20139;-58
2022/04/27 02:55:00;;;;;;;15.82;4.78;;;;;;;;;;5024428;28;20073;-60
2022/04/27 02:57:26;;;;;;;7.05;3.75;;;;;;;;;;5024860;28;20042;-60
2022/04/27 02:59:52;;;;;;;7.15;3.92;;;;;;;;;;5024688;28;20056;-60
2022/04/27 03:02:18;;;;;;;10.15;4.00;;;;;;;;;;5024809;28;20128;-59
2022/04/27 03:04:45;;;;;;;5.82;3.72;;;;;;;;;;5024943;28;20163;-58
2022/04/27 03:07:11;;;;;;;11.00;4.20;;;;;;;;;;5024844;28;20407;-59
2022/04/27 03:09:37;;;;;;;10.63;4.03;;;;;;;;;;5024385;28;20113;-58
2022/04/27 03:12:03;;;;;;;7.60;4.45;;;;;;;;;;5024772;28;20074;-59
2022/04/27 03:14:29;;;;;;;8.93;4.35;;;;;;;;;;5024603;28;20508;-59
2022/04/27 03:16:56;;;;;;;10.40;5.22;;;;;;;;;;5007277;28;20061;-58
2022/04/27 03:19:22;;;;;;;8.18;4.50;;;;;;;;;;5024628;28;20049;-59
2022/04/27 03:21:48;;;;;;;11.52;4.85;;;;;;;;;;5024491;28;20105;-59
2022/04/27 03:24:15;;;;;;;9.20;4.70;;;;;;;;;;5024405;28;20070;-59
2022/04/27 03:26:41;;;;;;;5.63;4.03;;;;;;;;;;5024781;28;20117;-59
2022/04/27 03:29:07;;;;;;;9.20;4.07;;;;;;;;;;5024409;28;20094;-59
2022/04/27 03:31:33;;;;;;;6.70;4.28;;;;;;;;;;5024860;28;20129;-59
2022/04/27 03:33:59;;;;;;;9.25;4.65;;;;;;;;;;5023918;28;20126;-59
2022/04/27 03:36:26;;;;;;;7.18;4.00;;;;;;;;;;5027853;28;20041;-60
2022/04/27 03:38:52;;;;;;;8.05;5.43;;;;;;;;;;5028301;28;20133;-59
2022/04/27 03:41:22;;;;;;;7.15;4.18;;;;;;;;;;5028326;28;20050;-59
2022/04/27 03:43:48;;;;;;;6.82;4.22;;;;;;;;;;5028083;28;20069;-60
2022/04/27 03:46:14;;;;;;;7.32;3.88;;;;;;;;;;5028297;28;20101;-59
2022/04/27 03:48:41;;;;;;;10.70;5.10;;;;;;;;;;5028073;28;20470;-58
2022/04/27 03:51:07;;;;;;;9.45;3.92;;;;;;;;;;5028254;28;20045;-58
2022/04/27 03:53:33;;;;;;;6.85;4.10;;;;;;;;;;5028277;28;20050;-59
2022/04/27 03:55:59;;;;;;;11.40;4.38;;;;;;;;;;5028126;28;20046;-62
2022/04/27 03:58:25;;;;;;;8.38;3.45;;;;;;;;;;5027898;28;20057;-59
2022/04/27 04:00:52;;;;;;;8.95;4.03;;;;;;;;;;5027856;28;20104;-59
2022/04/27 04:03:18;;;;;;;13.97;4.03;;;;;;;;;;5027716;28;20417;-59
2022/04/27 04:05:44;;;;;;;6.38;3.60;;;;;;;;;;5027934;28;20046;-58
2022/04/27 04:08:11;;;;;;;7.97;3.97;;;;;;;;;;5010362;28;20056;-59
2022/04/27 04:10:37;;;;;;;4.07;3.47;;;;;;;;;;5027855;28;20097;-59
2022/04/27 04:13:03;;;;;;;6.47;3.40;;;;;;;;;;5028003;28;20134;-59
2022/04/27 04:15:29;;;;;;;6.35;3.22;;;;;;;;;;5027507;28;20045;-59
2022/04/27 04:17:56;;;;;;;7.57;3.40;;;;;;;;;;5027759;28;20121;-59
2022/04/27 04:20:22;;;;;;;4.70;2.90;;;;;;;;;;5027602;28;20553;-58
2022/04/27 04:22:49;;;;;;;7.63;3.47;;;;;;;;;;5027377;28;20076;-59
2022/04/27 04:30:45;;;;;;;6.28;3.15;;;;;;;;;;5027070;28;20053;-59
2022/04/27 04:33:12;;;;;;;6.55;3.10;;;;;;;;;;5027214;28;20052;-59
2022/04/27 04:35:38;;;;;;;5.18;3.25;;;;;;;;;;5027462;28;20046;-59
2022/04/27 04:38:04;;;;;;;7.57;4.05;;;;;;;;;;5027228;28;20101;-59
2022/04/27 04:40:31;;;;;;;9.25;3.30;;;;;;;;;;5027283;28;20102;-60
2022/04/27 04:42:57;;;;;;;7.13;3.60;;;;;;;;;;5026947;28;20101;-59
2022/04/27 04:45:23;;;;;;;7.72;3.85;;;;;;;;;;5027127;28;20112;-59
2022/04/27 04:47:50;;;;;;;6.05;3.33;;;;;;;;;;5026092;28;20049;-59
2022/04/27 04:50:16;;;;;;;5.05;3.05;;;;;;;;;;5027030;28;20045;-59
2022/04/27 04:52:42;;;;;;;8.35;3.92;;;;;;;;;;5026969;28;20052;-58
2022/04/27 04:55:08;;;;;;;10.38;3.58;;;;;;;;;;5027003;28;20054;-60
2022/04/27 04:57:35;;;;;;;10.05;3.47;;;;;;;;;;5009155;28;20406;-58
2022/04/27 05:00:01;;;;;;;8.32;3.65;;;;;;;;;;5026707;28;20085;-58
2022/04/27 05:02:31;;;;;;;7.65;3.42;;;;;;;;;;5026591;28;20256;-58
2022/04/27 05:04:57;;;;;;;8.48;3.60;;;;;;;;;;5026861;28;20050;-58
2022/04/27 05:07:23;;;;;;;5.50;3.20;;;;;;;;;;5026604;28;20268;-59
2022/04/27 05:09:50;;;;;;;4.38;3.65;;;;;;;;;;5026226;28;20053;-59
2022/04/27 05:12:16;;;;;;;7.93;3.42;;;;;;;;;;5026745;28;20053;-59
2022/04/27 05:14:42;;;;;;;5.50;2.78;;;;;;;;;;5026677;28;20099;-59
2022/04/27 05:17:08;;;;;;;4.05;2.90;;;;;;;;;;5026514;28;20038;-58
2022/04/27 05:19:35;;;;;;;7.18;3.22;;;;;;;;;;5026201;28;20109;-59
2022/04/27 05:22:01;;;;;;;6.40;2.90;;;;;;;;;;5026534;28;20050;-59
2022/04/27 05:24:27;;;;;;;8.20;3.45;;;;;;;;;;5008949;28;20315;-58
2022/04/27 05:26:53;;;;;;;5.80;3.38;;;;;;;;;;5026523;28;20041;-59
2022/04/27 05:32:05;;;;;;;5.30;3.17;;;;;;;;;;5026142;28;20046;-58
2022/04/27 05:34:33;;;;;;;4.18;2.70;;;;;;;;;;5026564;28;20045;-59
2022/04/27 05:37:00;;;;;;;10.20;3.42;;;;;;;;;;5026201;28;20058;-59
2022/04/27 05:39:26;;;;;;;9.18;3.47;;;;;;;;;;5021446;28;20508;-59
2022/04/27 05:41:53;;;;;;;8.25;3.33;;;;;;;;;;5034688;28;20049;-59
2022/04/27 05:44:23;;;;;;;5.20;2.80;;;;;;;;;;5030046;28;20420;-58
2022/04/27 05:46:49;;;;;;;5.07;2.80;;;;;;;;;;5025540;28;20096;-59
2022/04/27 05:49:16;;;;;;;5.97;2.88;;;;;;;;;;5036666;28;20072;-59
2022/04/27 05:51:45;;;;;;;8.15;3.00;;;;;;;;;;5036126;28;20081;-59
2022/04/27 05:54:13;;;;;;;8.20;3.03;;;;;;;;;;5025669;28;20050;-59
2022/04/27 05:56:40;;;;;;;7.95;3.08;;;;;;;;;;5023277;28;20056;-59
2022/04/27 05:59:06;;;;;;;8.45;2.90;;;;;;;;;;5029201;28;20468;-59
2022/04/27 06:01:33;;;;;;;5.05;2.40;;;;;;;;;;5025081;28;20037;-60
2022/04/27 06:03:59;;;;;;;11.63;3.10;;;;;;;;;;5027383;28;20393;-59
2022/04/27 06:06:25;;;;;;;4.03;2.80;;;;;;;;;;5032177;28;20436;-59
2022/04/27 06:08:52;;;;;;;7.45;2.55;;;;;;;;;;5045136;28;20052;-60
2022/04/27 06:11:19;;;;;;;9.95;3.45;;;;;;;;;;5045389;28;20041;-59
2022/04/27 06:13:46;;;;;;;6.45;2.65;;;;;;;;;;5039659;28;20057;-59
2022/04/27 06:16:12;;;;;;;4.80;1.65;;;;;;;;;;5025563;28;20046;-59
2022/04/27 06:18:40;;;;;;;8.95;1.60;;;;;;;;;;5040842;28;20046;-59
2022/04/27 06:21:07;;;;;;;5.32;2.17;;;;;;;;;;5042939;28;20055;-59
2022/04/27 06:23:33;;;;;;;5.22;1.60;;;;;;;;;;5038515;28;20077;-60
2022/04/27 06:25:59;;;;;;;2.30;1.30;;;;;;;;;;5024699;28;20046;-59
2022/04/27 06:28:26;;;;;;;6.75;2.08;;;;;;;;;;5024043;28;20041;-59
2022/04/27 06:30:52;;;;;;;5.60;2.42;;;;;;;;;;5025151;28;20048;-60
2022/04/27 06:33:19;;;;;;;10.88;3.08;;;;;;;;;;5024735;28;20046;-59
2022/04/27 06:35:46;;;;;;;6.22;2.28;;;;;;;;;;5024906;28;20097;-60
2022/04/27 06:38:12;;;;;;;3.90;1.98;;;;;;;;;;5024814;28;20110;-61
2022/04/27 06:40:38;;;;;;;5.72;2.30;;;;;;;;;;5025156;28;20042;-59
2022/04/27 06:43:04;;;;;;;7.00;2.33;;;;;;;;;;5024908;28;20082;-59
2022/04/27 06:45:31;;;;;;;8.48;2.03;;;;;;;;;;5024726;28;20559;-59
2022/04/27 06:48:00;;;;;;;5.70;2.00;;;;;;;;;;5024879;28;20107;-59
2022/04/27 06:50:26;;;;;;;6.60;2.35;;;;;;;;;;5025071;28;20112;-58
2022/04/27 06:52:54;;;;;;;4.63;1.92;;;;;;;;;;5024509;28;20073;-59
2022/04/27 06:55:20;;;;;;;5.15;1.58;;;;;;;;;;5024930;28;20100;-59
2022/04/27 06:57:46;;;;;;;6.85;2.38;;;;;;;;;;5024863;28;20045;-59
2022/04/27 07:00:13;;;;;;;4.70;1.95;;;;;;;;;;5024767;28;20042;-59
2022/04/27 07:02:40;;;;;;;4.35;2.08;;;;;;;;;;5018762;28;20079;-58
2022/04/27 07:05:09;;;;;;;11.43;2.03;;;;;;;;;;5023386;28;20109;-61
2022/04/27 07:07:35;;;;;;;7.25;2.53;;;;;;;;;;5012797;28;20053;-59
2022/04/27 07:10:02;;;;;;;3.80;1.80;;;;;;;;;;5012362;28;20040;-58
2022/04/27 07:12:28;;;;;;;5.60;1.77;;;;;;;;;;5014595;28;20185;-58
2022/04/27 07:14:56;;;;;;;6.13;1.95;;;;;;;;;;5011613;28;20042;-59
2022/04/27 07:17:22;;;;;;;5.53;1.80;;;;;;;;;;5011909;28;20512;-58
2022/04/27 07:19:49;;;;;;;6.78;1.70;;;;;;;;;;5022422;28;20121;-59
2022/04/27 07:22:16;;;;;;;5.53;1.98;;;;;;;;;;5031191;28;20061;-61
2022/04/27 07:24:44;;;;;;;3.67;1.75;;;;;;;;;;5031290;28;20053;-59
2022/04/27 07:27:10;;;;;;;5.03;1.73;;;;;;;;;;5031542;28;20132;-61
2022/04/27 07:29:36;;;;;;;4.82;1.60;;;;;;;;;;5019175;28;20071;-59
2022/04/27 07:32:03;;;;;;;6.47;2.47;;;;;;;;;;5025462;28;20034;-60
2022/04/27 07:34:30;;;;;;;3.20;1.55;;;;;;;;;;5021411;28;20044;-59
2022/04/27 07:36:58;;;;;;;3.95;1.92;;;;;;;;;;5023843;28;20049;-59
2022/04/27 07:39:24;;;;;;;;;;;;;;;;;;5011946;28;20046;-58
2022/04/27 07:41:50;;;;;;;3.25;1.33;;;;;;;;;;5021779;28;20623;-59
2022/04/27 07:44:16;;;;;;;5.68;1.83;;;;;;;;;;5029970;28;20073;-60
2022/04/27 07:46:47;;;;;;;3.60;1.40;;;;;;;;;;5031137;28;20168;-60
2022/04/27 07:49:13;;;;;;;5.97;1.55;;;;;;;;;;5030202;28;20052;-59
2022/04/27 07:51:40;;;;;;;6.05;1.55;;;;;;;;;;5031154;28;20053;-60
2022/04/27 07:54:06;;;;;;;12.95;3.35;;;;;;;;;;5030756;28;20076;-60
2022/04/27 07:56:32;;;;;;;6.72;2.20;;;;;;;;;;5030627;28;20073;-59
2022/04/27 07:58:58;;;;;;;7.55;2.25;;;;;;;;;;5030785;28;20648;-58
2022/04/27 08:01:24;;;;;;;7.47;2.25;;;;;;;;;;5030943;28;20049;-59
2022/04/27 08:03:50;;;;;;;6.38;2.70;;;;;;;;;;5030571;28;20152;-59
2022/04/27 08:06:16;;;;;;;6.90;2.15;;;;;;;;;;5030539;28;20058;-59
2022/04/27 08:08:42;;;;;;;7.40;2.42;;;;;;;;;;5030448;28;20045;-59
2022/04/27 08:11:10;;;;;;;8.98;2.10;;;;;;;;;;5029426;28;20101;-59
2022/04/27 08:13:36;;;;;;;14.93;2.83;;;;;;;;;;5029244;28;20054;-59
2022/04/27 08:16:02;;;;;;;10.82;2.55;;;;;;;;;;5029157;28;20598;-59
2022/04/27 08:18:28;;;;;;;8.88;3.65;;;;;;;;;;5010813;28;20060;-59
2022/04/27 08:23:40;;;;;;;12.63;2.50;;;;;;;;;;5027430;28;20050;-58
2022/04/27 08:26:06;;;;;;;7.40;2.58;;;;;;;;;;5026930;28;20056;-59
2022/04/27 08:28:33;;;;;;;15.15;2.58;;;;;;;;;;5018804;28;20139;-59
2022/04/27 08:30:59;;;;;;;12.18;2.75;;;;;;;;;;5024788;28;20042;-59
2022/04/27 08:33:26;;;;;;;10.98;3.58;;;;;;;;;;5026399;28;20133;-59
2022/04/27 08:35:54;;;;;;;8.07;3.03;;;;;;;;;;5024361;28;20109;-59
2022/04/27 08:38:20;;;;;;;9.13;2.28;;;;;;;;;;5026048;28;20111;-58
2022/04/27 08:40:46;;;;;;;17.45;3.42;;;;;;;;;;5025363;28;20057;-59
2022/04/27 08:43:13;;;;;;;9.88;2.38;;;;;;;;;;5025938;28;20153;-59
2022/04/27 08:45:43;;;;;;;9.82;2.83;;;;;;;;;;5025508;28;20038;-59
2022/04/27 08:48:11;;;;;;;10.15;2.65;;;;;;;;;;5026452;28;20533;-58
2022/04/27 08:50:37;;;;;;;11.23;2.95;;;;;;;;;;5025809;28;20048;-58
2022/04/27 08:53:04;;;;;;;10.38;2.50;;;;;;;;;;5026494;28;20053;-59
2022/04/27 08:55:30;;;;;;;10.60;2.33;;;;;;;;;;5024275;28;20042;-58
2022/04/27 08:58:26;;;;;;;14.70;2.97;;;;;;;;;;5017905;28;20077;-58
2022/04/27 09:00:52;;;;;;;14.07;3.63;;;;;;;;;;5014035;28;20045;-60
2022/04/27 09:03:28;;;;;;;10.32;3.05;;;;;;;;;;5001927;28;20061;-59
2022/04/27 09:05:55;;;;;;;7.70;2.30;;;;;;;;;;5021362;28;20054;-59
2022/04/27 09:08:24;;;;;;;14.00;3.13;;;;;;;;;;5023063;28;20046;-59
2022/04/27 09:10:50;;;;;;;15.15;3.10;;;;;;;;;;5021767;28;20287;-58
2022/04/27 09:13:16;;;;;;;10.00;2.83;;;;;;;;;;5024351;28;20456;-58
2022/04/27 09:15:42;;;;;;;14.02;2.88;;;;;;;;;;5021336;28;20073;-58
2022/04/27 09:21:00;;;;;;;13.02;2.92;;;;;;;;;;5013699;28;20053;-58
2022/04/27 09:23:26;;;;;;;13.27;3.20;;;;;;;;;;5014302;28;20069;-58
2022/04/27 09:25:56;;;;;;;10.68;3.40;;;;;;;;;;5020889;28;20045;-59
2022/04/27 09:28:24;;;;;;;13.40;2.78;;;;;;;;;;5007551;28;20046;-59
2022/04/27 09:30:50;;;;;;;11.05;1.88;;;;;;;;;;5005622;28;20054;-60
2022/04/27 09:33:35;;;;;;;13.00;2.67;;;;;;;;;;5016544;28;20056;-59
2022/04/27 09:36:02;;;;;;;12.50;4.07;;;;;;;;;;5025939;28;20042;-60
2022/04/27 09:38:39;;;;;;;12.90;2.38;;;;;;;;;;5017920;28;20197;-63
2022/04/27 09:41:05;;;;;;;11.20;2.50;;;;;;;;;;5022231;28;20042;-59
2022/04/27 09:43:51;;;;;;;6.18;2.17;;;;;;;;;;5013494;28;20046;-59
2022/04/27 09:46:24;;;;;;;8.88;2.97;;;;;;;;;;5015760;28;20078;-60
2022/04/27 09:49:02;;;;;;;16.17;3.05;;;;;;;;;;5016698;28;20070;-59
2022/04/27 09:51:29;;;;;;;11.20;2.72;;;;;;;;;;5006164;28;20429;-59
2022/04/27 09:53:55;;;;;;;8.63;2.45;;;;;;;;;;5011788;28;20121;-59
2022/04/27 09:56:24;;;;;;;13.63;2.72;;;;;;;;;;5024865;28;20098;-59
2022/04/27 09:58:50;;;;;;;11.57;3.60;;;;;;;;;;5027368;28;20073;-59
2022/04/27 10:01:16;;;;;;;14.07;3.10;;;;;;;;;;5023583;28;20141;-60
2022/04/27 10:03:47;;;;;;;10.43;2.60;;;;;;;;;;5026617;28;20113;-60
2022/04/27 10:06:15;;;;;;;13.60;3.50;;;;;;;;;;5026824;28;20049;-59
2022/04/27 10:08:41;;;;;;;;;;;;;;;;;;5024383;28;20526;-59
2022/04/27 10:11:11;;;;;;;7.65;2.60;;;;;;;;;;5021892;28;20031;-59
2022/04/27 10:13:38;;;;;;;7.25;2.03;;;;;;;;;;5021268;28;20049;-59
2022/04/27 10:16:04;;;;;;;7.97;2.67;;;;;;;;;;5018930;28;20042;-59
2022/04/27 10:18:31;;;;;;;8.57;2.38;;;;;;;;;;5025568;28;20120;-59
2022/04/27 10:20:57;;;;;;;14.77;2.83;;;;;;;;;;5022652;28;20038;-59
2022/04/27 10:23:24;;;;;;;8.00;2.80;;;;;;;;;;5023154;28;20105;-59
2022/04/27 10:26:09;;;;;;;8.35;2.40;;;;;;;;;;5037902;28;20105;-59
2022/04/27 10:28:41;;;;;;;11.52;2.88;;;;;;;;;;5026423;28;20045;-58
2022/04/27 10:31:08;;;;;;;12.43;2.40;;;;;;;;;;5023058;28;20048;-59
2022/04/27 10:33:51;;;;;;;10.60;3.10;;;;;;;;;;5019795;28;20061;-59
2022/04/27 10:36:29;;;;;;;16.42;2.60;;;;;;;;;;5022960;28;20056;-59
2022/04/27 10:39:16;;;;;;;8.55;2.83;;;;;;;;;;5036750;28;20544;-59
2022/04/27 10:41:48;;;;;;;11.20;2.30;;;;;;;;;;5018134;28;20043;-58
2022/04/27 10:44:14;;;;;;;15.52;2.97;;;;;;;;;;5023706;28;20053;-60
2022/04/27 10:46:43;;;;;;;15.15;2.92;;;;;;;;;;5027352;28;20698;-59
2022/04/27 10:49:26;;;;;;;12.13;2.60;;;;;;;;;;5016889;28;20050;-59
2022/04/27 10:51:59;;;;;;;16.08;2.50;;;;;;;;;;5016831;28;20100;-58
2022/04/27 10:54:31;;;;;;;13.60;3.20;;;;;;;;;;5004926;28;20248;-59
2022/04/27 10:57:15;;;;;;;10.93;2.60;;;;;;;;;;5024694;28;20125;-60
2022/04/27 10:59:44;;;;;;;15.25;2.95;;;;;;;;;;5026193;28;20068;-60
2022/04/27 11:02:29;;;;;;;9.98;2.80;;;;;;;;;;5034551;28;20042;-58
2022/04/27 11:04:55;;;;;;;11.18;3.05;;;;;;;;;;5020100;28;20464;-59
2022/04/27 11:07:40;;;;;;;12.02;2.53;;;;;;;;;;5029530;28;20101;-61
2022/04/27 11:10:10;;;;;;;13.00;3.08;;;;;;;;;;5023789;28;20080;-61
2022/04/27 11:12:37;;;;;;;9.02;2.72;;;;;;;;;;5022901;28;20041;-59
2022/04/27 11:15:04;;;;;;;9.52;2.78;;;;;;;;;;5030881;28;20117;-61
2022/04/27 11:17:32;;;;;;;10.70;2.95;;;;;;;;;;5034885;28;20111;-61
2022/04/27 11:19:59;;;;;;;10.60;2.70;;;;;;;;;;5006833;28;20081;-61
2022/04/27 11:22:25;;;;;;;11.50;3.28;;;;;;;;;;5022181;28;20054;-61
2022/04/27 11:24:53;;;;;;;10.57;2.83;;;;;;;;;;5023885;28;20050;-62
2022/04/27 11:27:19;;;;;;;;;;;;;;;;;;5017211;28;20117;-59
2022/04/27 11:29:46;;;;;;;9.38;2.60;;;;;;;;;;5024423;28;19921;-60
2022/04/27 11:32:15;;;;;;;9.77;2.92;;;;;;;;;;5000097;28;20046;-60
2022/04/27 11:34:41;;;;;;;11.60;2.13;;;;;;;;;;5019383;28;20445;-59
2022/04/27 11:37:18;;;;;;;13.95;2.38;;;;;;;;;;5018599;28;20125;-58
2022/04/27 11:39:45;;;;;;;7.82;2.83;;;;;;;;;;5014110;28;20038;-58
2022/04/27 11:42:12;;;;;;;12.27;1.90;;;;;;;;;;5016495;28;20050;-58
2022/04/27 11:44:41;;;;;;;8.23;2.37;;;;;;;;;;5021345;28;20070;-60
2022/04/27 11:47:27;;;;;;;12.85;2.60;;;;;;;;;;5013176;28;20413;-59
2022/04/27 11:49:54;;;;;;;13.23;3.17;;;;;;;;;;5016511;28;21285;-58
2022/04/27 11:52:20;;;;;;;11.13;2.13;;;;;;;;;;5023845;28;20069;-59
2022/04/27 11:54:46;;;;;;;12.98;3.63;;;;;;;;;;5027234;28;20132;-59
2022/04/27 11:57:20;;;;;;;9.07;2.50;;;;;;;;;;5024061;28;20038;-59
2022/04/27 11:59:51;;;;;;;16.20;2.25;;;;;;;;;;5029472;28;20049;-59
2022/04/27 12:02:22;;;;;;;11.70;2.22;;;;;;;;;;5037922;28;20104;-59
2022/04/27 12:04:49;;;;;;;8.07;1.60;;;;;;;;;;5027586;28;20112;-60
2022/04/27 12:07:16;;;;;;;10.15;2.33;;;;;;;;;;5018045;28;20050;-58
2022/04/27 12:09:55;;;;;;;13.45;2.85;;;;;;;;;;5027753;28;20042;-59
2022/04/27 12:12:21;;;;;;;10.60;2.25;;;;;;;;;;5035540;28;20049;-59
2022/04/27 12:14:48;;;;;;;9.82;2.10;;;;;;;;;;5018321;28;20105;-59
2022/04/27 12:17:33;;;;;;;9.45;1.98;;;;;;;;;;5024693;28;20133;-59
2022/04/27 12:20:00;;;;;;;8.95;2.40;;;;;;;;;;5026237;28;21228;-59
2022/04/27 12:22:26;;;;;;;7.73;2.63;;;;;;;;;;5029683;28;20103;-59
2022/04/27 12:24:52;;;;;;;7.63;1.80;;;;;;;;;;5029090;28;20439;-59
2022/04/27 12:27:19;;;;;;;7.68;2.20;;;;;;;;;;5025022;28;20045;-60
2022/04/27 12:33:07;;;;;;;10.98;2.10;;;;;;;;;;4996883;28;20046;-58
2022/04/27 12:38:19;;;;;;;5.68;1.75;;;;;;;;;;5022490;28;20138;-58
2022/04/27 12:40:45;;;;;;;16.10;6.05;;;;;;;;;;5019139;28;20046;-59
2022/04/27 12:43:14;;;;;;;8.93;2.63;;;;;;;;;;5019733;28;20073;-60
2022/04/27 12:45:40;;;;;;;12.52;2.17;;;;;;;;;;5021005;28;20080;-60
2022/04/27 12:48:07;;;;;;;9.68;2.35;;;;;;;;;;5029344;28;20413;-62
2022/04/27 12:50:34;;;;;;;8.02;1.98;;;;;;;;;;5023321;28;20053;-61
2022/04/27 12:53:06;;;;;;;11.68;2.03;;;;;;;;;;5021901;28;20042;-61
2022/04/27 12:55:32;;;;;;;6.18;2.30;;;;;;;;;;5016091;28;20069;-62
2022/04/27 12:58:02;;;;;;;15.43;2.42;;;;;;;;;;5022606;28;20050;-59
2022/04/27 13:00:41;;;;;;;6.72;1.98;;;;;;;;;;5018277;28;20046;-60
2022/04/27 13:03:08;;;;;;;10.73;2.08;;;;;;;;;;5024635;28;20042;-61
2022/04/27 13:05:36;;;;;;;13.45;2.53;;;;;;;;;;5021786;28;20030;-59
2022/04/27 13:08:03;;;;;;;10.23;2.33;;;;;;;;;;5024702;28;20056;-60
2022/04/27 13:13:22;;;;;;;12.25;3.17;;;;;;;;;;4990354;28;20061;-58
2022/04/27 13:15:49;;;;;;;9.60;2.07;;;;;;;;;;5024901;28;20046;-59
2022/04/27 13:18:16;;;;;;;12.82;2.70;;;;;;;;;;5018465;28;20088;-61
2022/04/27 13:20:42;;;;;;;10.67;2.27;;;;;;;;;;5016514;28;20113;-61
2022/04/27 13:23:11;;;;;;;9.88;2.67;;;;;;;;;;5025272;28;20500;-60
2022/04/27 13:25:38;;;;;;;15.48;2.67;;;;;;;;;;5008334;28;20054;-60
2022/04/27 13:28:04;;;;;;;10.32;2.50;;;;;;;;;;5015736;28;20314;-59
2022/04/27 13:30:30;;;;;;;8.98;2.10;;;;;;;;;;5022482;28;20109;-59
2022/04/27 13:32:58;;;;;;;11.48;3.13;;;;;;;;;;5023057;28;20125;-59
2022/04/27 13:35:24;;;;;;;8.05;2.33;;;;;;;;;;5025841;28;20057;-59
2022/04/27 13:37:50;;;;;;;11.40;2.28;;;;;;;;;;5023130;28;20049;-60
2022/04/27 13:40:17;;;;;;;6.85;2.05;;;;;;;;;;5013650;28;20104;-59
2022/04/27 13:42:43;;;;;;;16.60;3.03;;;;;;;;;;5029568;28;20118;-59
2022/04/27 13:45:10;;;;;;;12.35;2.60;;;;;;;;;;5021330;28;20053;-60
2022/04/27 13:47:37;;;;;;;6.72;2.35;;;;;;;;;;5006846;28;20070;-60
2022/04/27 13:50:04;;;;;;;10.32;2.83;;;;;;;;;;5024597;28;20065;-60
2022/04/27 13:52:32;;;;;;;8.23;2.03;;;;;;;;;;5021574;28;20497;-61
2022/04/27 13:54:59;;;;;;;15.15;2.60;;;;;;;;;;5007613;28;20304;-59
2022/04/27 13:57:25;;;;;;;12.75;2.45;;;;;;;;;;5017017;28;20046;-58
2022/04/27 13:59:51;;;;;;;9.88;2.30;;;;;;;;;;5025462;28;20050;-60
2022/04/27 14:02:17;;;;;;;8.95;2.22;;;;;;;;;;5018881;28;20711;-59
2022/04/27 14:04:43;;;;;;;7.95;2.33;;;;;;;;;;5007624;28;20069;-59
2022/04/27 14:07:10;;;;;;;8.05;2.08;;;;;;;;;;5024093;28;20042;-61
2022/04/27 14:09:36;;;;;;;16.50;2.75;;;;;;;;;;5005141;28;20050;-59
2022/04/27 14:14:47;;;;;;;12.98;2.08;;;;;;;;;;5018753;28;20057;-62
2022/04/27 14:19:58;;;;;;;11.98;2.75;;;;;;;;;;5017788;28;20050;-62
2022/04/27 14:22:26;;;;;;;11.85;2.47;;;;;;;;;;4998762;28;20073;-60
2022/04/27 14:24:53;;;;;;;9.82;1.92;;;;;;;;;;5006410;28;20561;-60
2022/04/27 14:27:19;;;;;;;14.50;3.13;;;;;;;;;;5039653;28;20049;-61
2022/04/27 14:29:45;;;;;;;8.75;2.47;;;;;;;;;;5020950;28;20045;-61
2022/04/27 14:32:11;;;;;;;10.30;2.08;;;;;;;;;;5003678;28;20210;-61
2022/04/27 14:34:37;;;;;;;15.98;2.40;;;;;;;;;;5018000;28;20058;-60
2022/04/27 14:37:04;;;;;;;10.65;2.00;;;;;;;;;;5022310;28;20084;-61
2022/04/27 14:39:30;;;;;;;12.75;2.75;;;;;;;;;;5023706;28;20042;-62
2022/04/27 14:41:56;;;;;;;12.18;2.30;;;;;;;;;;5017003;28;20971;-62
2022/04/27 14:44:23;;;;;;;7.30;2.00;;;;;;;;;;5023181;28;20057;-58
2022/04/27 14:46:50;;;;;;;8.70;1.83;;;;;;;;;;5021381;28;20045;-59
2022/04/27 14:49:16;;;;;;;11.43;3.00;;;;;;;;;;5022376;28;20054;-59
2022/04/27 14:51:44;;;;;;;8.10;2.42;;;;;;;;;;5019870;28;20053;-59
2022/04/27 14:54:10;;;;;;;14.02;2.78;;;;;;;;;;5029100;28;20061;-59
2022/04/27 14:56:37;;;;;;;13.18;2.33;;;;;;;;;;5020800;28;20046;-59
2022/04/27 14:59:03;;;;;;;10.95;2.08;;;;;;;;;;5017058;28;20057;-59
2022/04/27 15:01:29;;;;;;;11.60;2.88;;;;;;;;;;5026061;28;20046;-59
2022/04/27 15:03:57;;;;;;;10.30;2.50;;;;;;;;;;5018870;28;20105;-58
2022/04/27 15:06:24;;;;;;;16.58;2.38;;;;;;;;;;5024667;28;20101;-58
2022/04/27 15:08:50;;;;;;;5.40;1.80;;;;;;;;;;5022566;28;20050;-58
2022/04/27 15:11:17;;;;;;;7.50;1.98;;;;;;;;;;5019015;28;20045;-58
2022/04/27 15:13:45;;;;;;;9.82;2.60;;;;;;;;;;5020770;28;20057;-57